createdAt,value
2023-02-01T00:01:33.351Z,6.40
2023-02-01T00:04:04.492Z,6.40
2023-02-01T00:06:38.065Z,6.50
2023-02-01T00:09:08.888Z,6.40
2023-02-01T00:11:39.631Z,6.50
2023-02-01T00:14:21.001Z,6.50
2023-02-01T00:16:51.751Z,6.50
2023-02-01T00:19:22.642Z,6.60
2023-02-01T00:21:55.933Z,6.60
2023-02-01T00:24:29.323Z,6.60
2023-02-01T00:27:02.924Z,6.60
2023-02-01T00:29:38.205Z,6.60
2023-02-01T00:32:09.332Z,6.60
2023-02-01T00:34:42.896Z,6.60
2023-02-01T00:37:16.285Z,7.10
2023-02-01T00:39:49.586Z,6.60
2023-02-01T00:42:20.399Z,6.60
2023-02-01T00:44:51.308Z,6.60
2023-02-01T00:47:22.017Z,6.60
2023-02-01T00:49:52.770Z,6.50
2023-02-01T00:52:26.076Z,6.50
2023-02-01T00:54:59.270Z,6.60
2023-02-01T00:57:32.107Z,6.60
2023-02-01T01:00:03.059Z,6.60
2023-02-01T01:02:33.803Z,6.60
2023-02-01T01:05:04.754Z,6.60
2023-02-01T01:07:38.242Z,6.60
2023-02-01T01:10:11.383Z,6.60
2023-02-01T01:12:42.483Z,6.60
2023-02-01T01:15:13.997Z,6.60
2023-02-01T01:17:44.793Z,6.50
2023-02-01T01:20:17.771Z,6.60
2023-02-01T01:22:51.852Z,6.60
2023-02-01T01:25:22.701Z,6.60
2023-02-01T01:28:09.682Z,6.50
2023-02-01T01:30:40.573Z,6.50
2023-02-01T01:33:11.429Z,6.50
2023-02-01T01:35:42.494Z,6.50
2023-02-01T01:38:19.241Z,6.50
2023-02-01T01:40:53.528Z,6.50
2023-02-01T01:43:24.957Z,6.50
2023-02-01T01:45:55.675Z,6.50
2023-02-01T01:48:31.577Z,6.50
2023-02-01T01:51:06.723Z,6.50
2023-02-01T01:53:48.449Z,6.50
2023-02-01T01:56:19.617Z,6.50
2023-02-01T01:58:50.419Z,6.50
2023-02-01T02:01:21.244Z,6.50
2023-02-01T02:03:52.198Z,6.40
2023-02-01T02:06:31.602Z,6.50
2023-02-01T02:09:07.246Z,6.50
2023-02-01T02:11:38.332Z,6.40
2023-02-01T02:14:15.728Z,6.40
2023-02-01T02:16:58.094Z,6.50
2023-02-01T02:19:49.797Z,6.40
2023-02-01T02:22:47.333Z,6.50
2023-02-01T02:25:44.466Z,6.40
2023-02-01T02:28:33.875Z,6.40
2023-02-01T02:31:27.887Z,6.50
2023-02-01T02:34:13.103Z,6.50
2023-02-01T02:36:52.359Z,6.50
2023-02-01T02:39:33.187Z,6.50
2023-02-01T02:42:25.620Z,6.50
2023-02-01T02:45:17.797Z,6.50
2023-02-01T02:47:58.683Z,6.40
2023-02-01T02:50:52.667Z,6.50
2023-02-01T02:53:41.640Z,6.50
2023-02-01T02:56:31.092Z,6.50
2023-02-01T02:59:15.066Z,6.50
2023-02-01T03:01:59.310Z,6.50
2023-02-01T03:04:30.477Z,6.40
2023-02-01T03:07:17.904Z,6.40
2023-02-01T03:09:51.149Z,6.40
2023-02-01T03:12:35.697Z,6.40
2023-02-01T03:15:13.616Z,6.40
2023-02-01T03:17:47.001Z,6.30
2023-02-01T03:20:21.085Z,6.40
2023-02-01T03:22:57.214Z,6.40
2023-02-01T03:25:32.536Z,6.30
2023-02-01T03:28:11.207Z,6.30
2023-02-01T03:30:45.563Z,6.30
2023-02-01T03:33:26.531Z,6.30
2023-02-01T03:36:11.268Z,6.30
2023-02-01T03:38:52.749Z,6.30
2023-02-01T03:41:38.223Z,6.30
2023-02-01T03:44:17.125Z,6.30
2023-02-01T03:46:53.248Z,6.30
2023-02-01T03:49:30.191Z,6.30
2023-02-01T03:52:02.613Z,6.80
2023-02-01T03:54:37.127Z,6.30
2023-02-01T03:57:13.514Z,6.30
2023-02-01T03:59:44.818Z,6.30
2023-02-01T04:02:18.342Z,6.30
2023-02-01T04:04:49.088Z,6.20
2023-02-01T04:07:21.945Z,6.30
2023-02-01T04:09:55.271Z,6.30
2023-02-01T04:12:26.355Z,6.30
2023-02-01T04:14:57.404Z,6.30
2023-02-01T04:17:31.103Z,6.30
2023-02-01T04:20:02.292Z,6.30
2023-02-01T04:22:33.059Z,6.30
2023-02-01T04:25:07.101Z,6.30
2023-02-01T04:30:11.389Z,6.30
2023-02-01T04:32:42.694Z,6.30
2023-02-01T04:35:13.631Z,6.40
2023-02-01T04:37:44.486Z,6.40
2023-02-01T04:40:18.231Z,6.40
2023-02-01T04:42:49.065Z,6.40
2023-02-01T04:45:19.966Z,6.40
2023-02-01T04:47:51.553Z,6.40
2023-02-01T04:50:22.760Z,6.40
2023-02-01T04:52:54.001Z,6.40
2023-02-01T04:55:27.372Z,6.40
2023-02-01T04:57:58.159Z,6.30
2023-02-01T05:00:28.914Z,6.40
2023-02-01T05:02:59.913Z,6.40
2023-02-01T05:05:31.247Z,6.40
2023-02-01T05:08:02.173Z,6.50
2023-02-01T05:10:35.437Z,6.50
2023-02-01T05:13:18.728Z,6.50
2023-02-01T05:15:49.838Z,6.50
2023-02-01T05:18:20.651Z,6.40
2023-02-01T05:20:51.814Z,6.40
2023-02-01T05:23:22.540Z,6.40
2023-02-01T05:25:55.880Z,6.50
2023-02-01T05:28:26.693Z,6.40
2023-02-01T05:30:58.058Z,6.40
2023-02-01T05:33:29.026Z,6.40
2023-02-01T05:35:59.823Z,6.40
2023-02-01T05:38:30.743Z,6.40
2023-02-01T05:41:04.259Z,6.40
2023-02-01T05:43:34.981Z,6.40
2023-02-01T05:46:05.948Z,6.40
2023-02-01T05:48:36.699Z,6.40
2023-02-01T05:51:07.613Z,6.40
2023-02-01T05:53:38.734Z,6.40
2023-02-01T05:56:12.302Z,6.40
2023-02-01T05:58:43.109Z,6.40
2023-02-01T06:01:13.931Z,6.40
2023-02-01T06:03:44.816Z,6.40
2023-02-01T06:06:15.628Z,6.40
2023-02-01T06:08:46.434Z,6.30
2023-02-01T06:11:31.749Z,6.30
2023-02-01T06:14:03.554Z,6.30
2023-02-01T06:16:34.315Z,6.30
2023-02-01T06:19:07.513Z,6.30
2023-02-01T06:21:41.368Z,6.30
2023-02-01T06:24:12.605Z,5.90
2023-02-01T06:26:47.824Z,6.30
2023-02-01T06:29:18.674Z,6.40
2023-02-01T06:31:49.415Z,6.40
2023-02-01T06:34:22.211Z,6.40
2023-02-01T06:36:54.662Z,6.40
2023-02-01T06:39:25.437Z,6.40
2023-02-01T06:41:58.722Z,6.40
2023-02-01T06:44:29.507Z,6.40
2023-02-01T06:47:00.526Z,6.40
2023-02-01T06:49:31.675Z,6.40
2023-02-01T06:52:03.375Z,6.40
2023-02-01T06:54:35.441Z,6.40
2023-02-01T06:57:08.894Z,6.50
2023-02-01T06:59:39.688Z,6.50
2023-02-01T07:02:14.396Z,6.50
2023-02-01T07:04:45.287Z,6.50
2023-02-01T07:07:16.244Z,6.40
2023-02-01T07:09:47.221Z,6.50
2023-02-01T07:12:23.558Z,6.40
2023-02-01T07:14:54.953Z,6.40
2023-02-01T07:17:25.787Z,6.50
2023-02-01T07:19:56.503Z,6.50
2023-02-01T07:22:27.236Z,6.50
2023-02-01T07:24:58.051Z,6.50
2023-02-01T07:27:31.554Z,6.40
2023-02-01T07:30:04.861Z,7.00
2023-02-01T07:32:36.182Z,6.50
2023-02-01T07:35:07.645Z,6.60
2023-02-01T07:37:41.471Z,6.60
2023-02-01T07:40:13.973Z,6.60
2023-02-01T07:42:47.280Z,6.60
2023-02-01T07:45:21.914Z,6.60
2023-02-01T07:47:54.856Z,6.60
2023-02-01T07:50:26.188Z,6.60
2023-02-01T07:52:57.365Z,6.50
2023-02-01T07:55:28.468Z,6.70
2023-02-01T07:58:03.509Z,6.70
2023-02-01T08:00:46.825Z,6.70
2023-02-01T08:03:17.598Z,6.70
2023-02-01T08:05:48.683Z,6.70
2023-02-01T08:08:20.817Z,6.80
2023-02-01T08:10:55.646Z,6.70
2023-02-01T08:13:31.805Z,6.30
2023-02-01T08:16:08.649Z,6.80
2023-02-01T08:18:40.622Z,6.70
2023-02-01T08:21:13.548Z,6.70
2023-02-01T08:23:45.166Z,6.70
2023-02-01T08:26:19.041Z,6.70
2023-02-01T08:28:55.270Z,6.40
2023-02-01T08:31:27.865Z,6.70
2023-02-01T08:34:00.492Z,6.70
2023-02-01T08:36:33.197Z,6.80
2023-02-01T08:39:06.785Z,7.10
2023-02-01T08:41:40.113Z,6.90
2023-02-01T08:44:13.472Z,6.80
2023-02-01T08:46:44.140Z,6.80
2023-02-01T08:49:14.985Z,6.80
2023-02-01T08:51:45.740Z,6.80
2023-02-01T08:54:16.579Z,6.90
2023-02-01T08:56:47.375Z,6.80
2023-02-01T08:59:23.790Z,6.90
2023-02-01T09:01:55.426Z,6.90
2023-02-01T09:04:26.404Z,7.00
2023-02-01T09:06:57.892Z,6.90
2023-02-01T09:09:31.147Z,7.20
2023-02-01T09:12:01.900Z,6.90
2023-02-01T09:14:35.396Z,6.90
2023-02-01T09:17:09.400Z,6.90
2023-02-01T09:19:43.086Z,7.00
2023-02-01T09:22:13.969Z,7.00
2023-02-01T09:24:44.734Z,7.00
2023-02-01T09:27:15.734Z,7.10
2023-02-01T09:29:53.215Z,7.10
2023-02-01T09:32:25.036Z,7.10
2023-02-01T09:34:56.427Z,7.10
2023-02-01T09:37:27.232Z,7.00
2023-02-01T09:39:57.982Z,7.10
2023-02-01T09:42:47.825Z,7.00
2023-02-01T09:45:27.794Z,7.00
2023-02-01T09:48:02.013Z,7.10
2023-02-01T09:50:38.528Z,7.20
2023-02-01T09:53:15.723Z,7.20
2023-02-01T09:55:49.961Z,7.20
2023-02-01T09:58:26.777Z,7.20
2023-02-01T10:01:04.166Z,7.20
2023-02-01T10:03:38.553Z,7.20
2023-02-01T10:06:34.540Z,7.20
2023-02-01T10:09:24.556Z,7.20
2023-02-01T10:12:14.134Z,7.10
2023-02-01T10:15:01.483Z,7.10
2023-02-01T10:17:52.900Z,7.20
2023-02-01T10:20:29.277Z,7.20
2023-02-01T10:23:31.232Z,7.10
2023-02-01T10:26:08.755Z,7.20
2023-02-01T10:28:42.504Z,7.00
2023-02-01T10:31:15.089Z,7.30
2023-02-01T10:33:52.247Z,7.30
2023-02-01T10:36:29.182Z,7.40
2023-02-01T10:39:02.228Z,7.40
2023-02-01T10:41:38.537Z,7.30
2023-02-01T10:44:15.348Z,7.40
2023-02-01T10:46:46.637Z,7.40
2023-02-01T10:49:24.510Z,7.40
2023-02-01T10:51:59.752Z,7.40
2023-02-01T10:54:39.241Z,7.30
2023-02-01T10:57:12.342Z,7.40
2023-02-01T10:59:45.018Z,7.40
2023-02-01T11:02:28.985Z,7.40
2023-02-01T11:05:10.214Z,7.40
2023-02-01T11:07:42.772Z,7.40
2023-02-01T11:10:41.829Z,7.40
2023-02-01T11:13:18.843Z,7.30
2023-02-01T11:15:58.305Z,7.30
2023-02-01T11:18:31.831Z,7.30
2023-02-01T11:21:06.385Z,7.30
2023-02-01T11:23:43.509Z,7.30
2023-02-01T11:26:17.215Z,7.40
2023-02-01T11:28:56.136Z,7.50
2023-02-01T11:31:28.634Z,7.60
2023-02-01T11:34:04.264Z,7.40
2023-02-01T11:36:40.047Z,7.50
2023-02-01T11:39:30.583Z,7.50
2023-02-01T11:42:07.489Z,7.40
2023-02-01T11:44:41.863Z,7.40
2023-02-01T11:47:29.733Z,7.50
2023-02-01T11:50:02.664Z,7.60
2023-02-01T11:52:56.035Z,7.60
2023-02-01T11:55:46.579Z,7.70
2023-02-01T11:58:31.612Z,7.70
2023-02-01T12:01:24.087Z,7.70
2023-02-01T12:04:19.800Z,7.70
2023-02-01T12:06:55.522Z,7.60
2023-02-01T12:09:44.140Z,7.60
2023-02-01T12:12:27.089Z,7.60
2023-02-01T12:15:13.906Z,7.30
2023-02-01T12:18:03.792Z,7.20
2023-02-01T12:21:03.705Z,7.10
2023-02-01T12:23:58.207Z,7.10
2023-02-01T12:26:58.461Z,7.10
2023-02-01T12:29:57.533Z,7.10
2023-02-01T12:32:42.867Z,7.10
2023-02-01T12:35:23.745Z,7.10
2023-02-01T12:38:10.238Z,7.10
2023-02-01T12:40:56.668Z,7.10
2023-02-01T12:43:39.538Z,7.10
2023-02-01T12:46:14.840Z,7.10
2023-02-01T12:49:00.302Z,7.20
2023-02-01T12:51:35.752Z,7.20
2023-02-01T12:54:14.192Z,7.30
2023-02-01T12:56:48.905Z,7.40
2023-02-01T12:59:28.957Z,7.40
2023-02-01T13:02:08.238Z,7.40
2023-02-01T13:04:53.779Z,7.40
2023-02-01T13:07:29.373Z,7.40
2023-02-01T13:10:05.588Z,7.40
2023-02-01T13:12:40.789Z,7.50
2023-02-01T13:15:21.249Z,7.50
2023-02-01T13:17:56.504Z,7.50
2023-02-01T13:20:32.218Z,7.40
2023-02-01T13:23:07.882Z,7.50
2023-02-01T13:25:47.480Z,7.50
2023-02-01T13:28:44.575Z,7.40
2023-02-01T13:31:48.454Z,7.40
2023-02-01T13:34:44.737Z,7.40
2023-02-01T13:37:38.306Z,7.40
2023-02-01T13:40:21.834Z,7.50
2023-02-01T13:42:55.896Z,7.40
2023-02-01T13:45:30.145Z,7.40
2023-02-01T13:48:08.963Z,7.50
2023-02-01T13:50:42.047Z,7.50
2023-02-01T13:53:21.823Z,7.90
2023-02-01T13:56:00.462Z,7.60
2023-02-01T13:58:37.467Z,7.60
2023-02-01T14:01:47.501Z,7.60
2023-02-01T14:04:52.052Z,7.60
2023-02-01T14:07:25.397Z,7.60
2023-02-01T14:09:56.253Z,7.60
2023-02-01T14:12:47.279Z,7.60
2023-02-01T14:15:30.319Z,7.80
2023-02-01T14:18:04.703Z,7.70
2023-02-01T14:20:54.387Z,7.80
2023-02-01T14:23:34.302Z,7.70
2023-02-01T14:26:24.352Z,7.70
2023-02-01T14:28:59.603Z,7.80
2023-02-01T14:31:48.568Z,7.80
2023-02-01T14:34:24.202Z,7.80
2023-02-01T14:37:01.877Z,7.80
2023-02-01T14:39:41.313Z,7.80
2023-02-01T14:42:25.966Z,7.80
2023-02-01T14:45:00.100Z,7.70
2023-02-01T14:47:36.430Z,7.70
2023-02-01T14:50:34.610Z,7.70
2023-02-01T14:53:29.859Z,7.70
2023-02-01T14:56:05.516Z,7.70
2023-02-01T14:58:43.499Z,7.70
2023-02-01T15:01:25.391Z,7.80
2023-02-01T15:04:06.255Z,7.80
2023-02-01T15:06:42.151Z,7.80
2023-02-01T15:09:18.561Z,7.80
2023-02-01T15:12:00.656Z,7.90
2023-02-01T15:14:33.563Z,7.80
2023-02-01T15:17:04.905Z,7.80
2023-02-01T15:19:35.726Z,7.80
2023-02-01T15:22:06.678Z,7.80
2023-02-01T15:24:40.040Z,7.80
2023-02-01T15:27:13.279Z,8.00
2023-02-01T15:29:44.216Z,7.80
2023-02-01T15:32:35.376Z,7.70
2023-02-01T15:35:06.501Z,7.80
2023-02-01T15:37:37.349Z,7.80
2023-02-01T15:40:25.078Z,7.80
2023-02-01T15:42:57.755Z,7.80
2023-02-01T15:45:38.645Z,7.80
2023-02-01T15:48:09.478Z,7.80
2023-02-01T15:50:43.967Z,7.80
2023-02-01T15:53:22.053Z,7.80
2023-02-01T15:56:01.113Z,7.80
2023-02-01T15:58:32.910Z,7.90
2023-02-01T16:01:07.702Z,7.90
2023-02-01T16:03:42.258Z,7.90
2023-02-01T16:06:30.052Z,7.90
2023-02-01T16:09:06.646Z,7.90
2023-02-01T16:11:45.435Z,7.90
2023-02-01T16:14:19.760Z,7.90
2023-02-01T16:16:53.808Z,8.00
2023-02-01T16:19:28.895Z,7.80
2023-02-01T16:22:00.713Z,7.90
2023-02-01T16:24:33.506Z,7.90
2023-02-01T16:27:10.881Z,7.90
2023-02-01T16:29:42.864Z,7.90
2023-02-01T16:32:20.117Z,7.90
2023-02-01T16:34:52.071Z,7.90
2023-02-01T16:37:29.094Z,8.00
2023-02-01T16:39:59.847Z,8.00
2023-02-01T16:42:33.346Z,8.00
2023-02-01T16:45:08.434Z,8.00
2023-02-01T16:47:43.091Z,8.00
2023-02-01T16:50:23.505Z,7.90
2023-02-01T16:52:55.337Z,7.90
2023-02-01T16:55:27.117Z,7.80
2023-02-01T16:58:00.650Z,7.70
2023-02-01T17:00:32.112Z,7.80
2023-02-01T17:03:02.881Z,7.80
2023-02-01T17:05:34.542Z,7.70
2023-02-01T17:08:10.715Z,7.70
2023-02-01T17:10:42.360Z,7.60
2023-02-01T17:13:18.723Z,7.50
2023-02-01T17:15:56.480Z,7.30
2023-02-01T17:18:31.524Z,7.00
2023-02-01T17:21:03.265Z,6.80
2023-02-01T17:23:37.778Z,6.70
2023-02-01T17:26:12.027Z,6.60
2023-02-01T17:28:45.470Z,6.60
2023-02-01T17:31:18.541Z,6.40
2023-02-01T17:33:49.695Z,6.40
2023-02-01T17:36:21.138Z,6.40
2023-02-01T17:39:05.022Z,6.40
2023-02-01T17:41:37.521Z,6.30
2023-02-01T17:44:13.472Z,6.20
2023-02-01T17:46:46.070Z,6.30
2023-02-01T17:49:16.960Z,6.30
2023-02-01T17:51:47.835Z,6.30
2023-02-01T17:54:20.074Z,6.30
2023-02-01T17:56:52.539Z,6.40
2023-02-01T17:59:29.128Z,6.40
2023-02-01T18:02:01.122Z,6.40
2023-02-01T18:04:31.968Z,6.40
2023-02-01T18:07:03.027Z,6.50
2023-02-01T18:09:33.876Z,6.60
2023-02-01T18:12:05.981Z,6.60
2023-02-01T18:14:39.594Z,6.60
2023-02-01T18:17:12.937Z,6.90
2023-02-01T18:19:44.054Z,7.10
2023-02-01T18:22:21.226Z,6.80
2023-02-01T18:24:53.524Z,6.90
2023-02-01T18:27:25.708Z,6.80
2023-02-01T18:30:00.139Z,6.80
2023-02-01T18:32:33.322Z,6.70
2023-02-01T18:35:04.092Z,6.50
2023-02-01T18:37:34.809Z,6.30
2023-02-01T18:40:07.277Z,6.20
2023-02-01T18:42:38.000Z,6.10
2023-02-01T18:45:25.825Z,6.10
2023-02-01T18:47:59.287Z,6.10
2023-02-01T18:50:56.580Z,6.00
2023-02-01T18:53:29.773Z,6.00
2023-02-01T18:56:02.179Z,6.00
2023-02-01T18:58:33.121Z,6.00
2023-02-01T19:01:17.501Z,6.00
2023-02-01T19:03:59.782Z,6.00
2023-02-01T19:06:36.616Z,6.00
2023-02-01T19:09:07.448Z,6.00
2023-02-01T19:11:38.244Z,5.90
2023-02-01T19:14:09.012Z,5.90
2023-02-01T19:16:42.670Z,5.90
2023-02-01T19:19:13.753Z,5.90
2023-02-01T19:21:44.566Z,5.90
2023-02-01T19:24:17.419Z,5.80
2023-02-01T19:26:50.349Z,5.80
2023-02-01T19:29:21.128Z,5.80
2023-02-01T19:31:54.761Z,5.70
2023-02-01T19:34:26.971Z,6.20
2023-02-01T19:36:57.882Z,5.80
2023-02-01T19:39:28.755Z,5.80
2023-02-01T19:42:01.770Z,5.80
2023-02-01T19:44:33.597Z,5.80
2023-02-01T19:47:10.206Z,5.90
2023-02-01T19:49:41.172Z,5.90
2023-02-01T19:52:15.011Z,5.90
2023-02-01T19:54:48.758Z,6.00
2023-02-01T19:57:19.595Z,6.10
2023-02-01T19:59:50.435Z,6.10
2023-02-01T20:02:23.838Z,6.10
2023-02-01T20:04:54.625Z,6.10
2023-02-01T20:07:25.660Z,6.10
2023-02-01T20:09:56.551Z,6.10
2023-02-01T20:12:27.657Z,6.10
2023-02-01T20:14:58.379Z,6.00
2023-02-01T20:17:32.900Z,6.00
2023-02-01T20:20:03.733Z,6.00
2023-02-01T20:22:34.710Z,6.00
2023-02-01T20:25:11.238Z,6.10
2023-02-01T20:27:42.816Z,6.10
2023-02-01T20:30:19.967Z,6.10
2023-02-01T20:32:56.188Z,6.10
2023-02-01T20:35:27.082Z,6.00
2023-02-01T20:37:59.084Z,6.00
2023-02-01T20:40:31.355Z,6.00
2023-02-01T20:43:02.527Z,6.10
2023-02-01T20:45:33.566Z,6.10
2023-02-01T20:48:07.019Z,6.10
2023-02-01T20:50:38.386Z,6.00
2023-02-01T20:53:12.796Z,6.50
2023-02-01T20:55:54.350Z,5.60
2023-02-01T20:58:27.615Z,6.10
2023-02-01T21:00:58.646Z,6.00
2023-02-01T21:03:39.647Z,6.10
2023-02-01T21:06:13.100Z,6.20
2023-02-01T21:08:46.273Z,6.10
2023-02-01T21:11:20.934Z,6.10
2023-02-01T21:13:55.728Z,6.10
2023-02-01T21:16:30.875Z,6.10
2023-02-01T21:19:04.325Z,6.10
2023-02-01T21:21:35.154Z,6.20
2023-02-01T21:24:07.748Z,6.30
2023-02-01T21:26:43.485Z,6.10
2023-02-01T21:29:17.690Z,6.30
2023-02-01T21:31:48.644Z,6.40
2023-02-01T21:34:21.977Z,6.40
2023-02-01T21:36:55.790Z,6.30
2023-02-01T21:39:27.743Z,6.20
2023-02-01T21:42:11.078Z,6.20
2023-02-01T21:44:46.252Z,6.10
2023-02-01T21:47:19.405Z,6.00
2023-02-01T21:49:56.956Z,6.30
2023-02-01T21:52:28.183Z,5.80
2023-02-01T21:54:59.849Z,6.20
2023-02-01T21:57:34.170Z,5.80
2023-02-01T22:00:05.559Z,5.80
2023-02-01T22:02:36.572Z,5.30
2023-02-01T22:05:11.272Z,5.80
2023-02-01T22:07:42.081Z,5.90
2023-02-01T22:10:15.143Z,5.90
2023-02-01T22:12:45.863Z,5.90
2023-02-01T22:15:18.035Z,5.80
2023-02-01T22:17:48.831Z,5.80
2023-02-01T22:20:22.430Z,5.80
2023-02-01T22:22:53.256Z,5.80
2023-02-01T22:25:24.809Z,5.80
2023-02-01T22:28:30.131Z,5.80
2023-02-01T22:30:50.100Z,5.90
2023-02-01T22:33:25.676Z,5.90
2023-02-01T22:35:59.081Z,5.80
2023-02-01T22:38:32.772Z,5.80
2023-02-01T22:41:05.677Z,5.80
2023-02-01T22:43:37.076Z,5.90
2023-02-01T22:46:10.225Z,5.90
2023-02-01T22:48:42.544Z,5.90
2023-02-01T22:51:20.020Z,6.00
2023-02-01T22:53:59.277Z,6.00
2023-02-01T22:56:32.839Z,6.00
2023-02-01T22:59:05.620Z,6.00
2023-02-01T23:01:37.329Z,6.10
2023-02-01T23:04:14.584Z,6.10
2023-02-01T23:06:50.937Z,6.10
2023-02-01T23:09:25.155Z,6.10
2023-02-01T23:11:56.910Z,6.10
2023-02-01T23:14:27.739Z,6.10
2023-02-01T23:16:58.479Z,6.10
2023-02-01T23:19:29.214Z,6.10
2023-02-01T23:22:02.776Z,6.10
2023-02-01T23:24:33.606Z,6.10
2023-02-01T23:27:04.376Z,6.10
2023-02-01T23:29:35.106Z,6.10
2023-02-01T23:32:06.011Z,6.20
2023-02-01T23:34:36.889Z,6.20
2023-02-01T23:37:13.373Z,6.20
2023-02-01T23:39:44.096Z,6.30
2023-02-01T23:42:14.799Z,6.30
2023-02-01T23:44:43.353Z,6.30
2023-02-01T23:47:14.815Z,6.30
2023-02-01T23:49:45.704Z,6.30
2023-02-01T23:52:19.045Z,6.30
2023-02-01T23:54:49.987Z,6.40
2023-02-01T23:57:20.979Z,6.30
2023-02-01T23:59:51.696Z,6.40
